Time;durP1;ratioP1;P1;durP2;ratioP2;P2;SDS_P1;SDS_P2;PMS_P1;PMS_P2;Temp;Humidity;BMP_temperature;BMP_pressure;BME280_temperature;BME280_humidity;BME280_pressure;Samples;Min_cycle;Max_cycle;Signal;HPM_P1;HPM_P2
2023/01/10 00:02:28;;;;;;;27.30;18.70;;;;;;;3.21;100.00;98551.55;443816;1250;142303;-63
2023/01/10 00:22:58;;;;;;;30.50;22.20;;;;;;;2.72;100.00;98569.14;433166;1253;144380;-63
2023/01/10 00:33:04;;;;;;;28.90;21.00;;;;;;;2.51;100.00;98573.74;433327;1254;142931;-62
2023/01/10 00:53:34;;;;;;;26.40;20.10;;;;;;;2.40;100.00;98581.87;436105;1251;141827;-63
2023/01/10 01:03:40;;;;;;;29.90;22.50;;;;;;;2.56;100.00;98596.67;438809;1251;145442;-63
2023/01/10 01:13:46;;;;;;;23.30;18.10;;;;;;;2.63;100.00;98613.75;436538;1250;142810;-64
2023/01/10 01:23:52;;;;;;;26.60;18.00;;;;;;;2.66;100.00;98616.08;433206;1251;142353;-64
2023/01/10 01:33:58;;;;;;;25.00;15.60;;;;;;;2.68;100.00;98627.02;442434;1250;147176;-62
2023/01/10 01:44:10;;;;;;;24.20;18.60;;;;;;;2.70;100.00;98644.40;436104;1251;142299;-63
2023/01/10 01:54:18;;;;;;;22.90;19.00;;;;;;;2.67;100.00;98655.06;432844;1251;142763;-63
2023/01/10 02:04:29;;;;;;;24.20;20.20;;;;;;;2.62;100.00;98665.67;436718;1253;142142;-63
2023/01/10 02:14:36;;;;;;;28.80;19.30;;;;;;;2.59;100.00;98668.23;444045;1251;143895;-63
2023/01/10 02:25:31;;;;;;;26.10;18.70;;;;;;;2.57;100.00;98666.07;438529;1250;145363;-64
2023/01/10 02:36:02;;;;;;;27.70;18.30;;;;;;;2.51;100.00;98667.55;439613;1254;186463;-63
2023/01/10 02:46:14;;;;;;;21.50;16.20;;;;;;;2.44;100.00;98679.46;441972;1251;143219;-62
2023/01/10 02:56:56;;;;;;;29.20;20.50;;;;;;;2.43;100.00;98695.52;436743;1251;152066;-62
2023/01/10 03:07:09;;;;;;;28.90;19.40;;;;;;;2.57;100.00;98699.23;436365;1250;142717;-61
2023/01/10 03:17:18;;;;;;;33.00;21.60;;;;;;;2.66;100.00;98706.11;444631;1251;142447;-62
2023/01/10 03:27:33;;;;;;;31.40;22.60;;;;;;;2.70;100.00;98720.97;434141;1253;142467;-63
2023/01/10 03:37:45;;;;;;;35.20;24.70;;;;;;;2.69;100.00;98729.63;442360;1251;142491;-62
2023/01/10 03:47:55;;;;;;;37.20;24.40;;;;;;;2.71;100.00;98745.98;439214;1250;141917;-63
2023/01/10 03:58:00;;;;;;;34.90;24.80;;;;;;;2.69;100.00;98757.63;435031;1251;142640;-64
2023/01/10 04:08:07;;;;;;;34.60;24.10;;;;;;;2.65;100.00;98774.58;433793;1251;146351;-62
2023/01/10 04:18:14;;;;;;;33.90;22.90;;;;;;;2.60;100.00;98790.88;434654;1250;141422;-64
2023/01/10 04:28:20;;;;;;;32.20;25.50;;;;;;;2.57;100.00;98806.56;436279;1252;142644;-63
2023/01/10 04:38:29;;;;;;;28.80;20.90;;;;;;;2.55;100.00;98816.48;434570;1250;143001;-66
2023/01/10 04:48:36;;;;;;;30.40;23.10;;;;;;;2.52;100.00;98830.59;437070;1251;143045;-63
2023/01/10 04:58:40;;;;;;;;;;;;;;;2.49;100.00;98849.39;441014;1249;142803;-63
2023/01/10 05:08:46;;;;;;;33.10;21.80;;;;;;;2.48;100.00;98872.60;439496;1249;129309;-62
2023/01/10 05:18:52;;;;;;;38.00;24.50;;;;;;;2.44;100.00;98892.60;442485;1251;142497;-63
2023/01/10 05:28:58;;;;;;;31.20;21.90;;;;;;;2.40;100.00;98899.52;435690;1253;142074;-63
2023/01/10 05:39:05;;;;;;;32.70;22.70;;;;;;;2.35;100.00;98911.14;438326;1251;143123;-63
2023/01/10 05:49:10;;;;;;;30.80;21.80;;;;;;;2.26;100.00;98929.09;449667;1250;143756;-63
2023/01/10 05:59:16;;;;;;;31.60;21.80;;;;;;;2.24;100.00;98951.27;450287;1250;142693;-62
2023/01/10 06:09:32;;;;;;;34.70;24.60;;;;;;;2.21;100.00;98977.48;436150;1251;143488;-63
2023/01/10 06:19:38;;;;;;;29.30;21.30;;;;;;;2.19;100.00;98993.79;442652;1251;142954;-62
2023/01/10 06:29:44;;;;;;;32.30;23.00;;;;;;;2.20;100.00;99010.31;447823;1250;142797;-63
2023/01/10 06:39:50;;;;;;;32.00;21.60;;;;;;;2.30;100.00;99028.80;449830;1249;142234;-63
2023/01/10 06:49:56;;;;;;;34.10;21.60;;;;;;;2.39;100.00;99044.85;450165;1251;197027;-63
2023/01/10 07:00:02;;;;;;;31.80;20.40;;;;;;;2.47;100.00;99066.82;450407;1250;142290;-63
2023/01/10 07:10:10;;;;;;;31.90;20.90;;;;;;;2.48;100.00;99084.74;449588;1250;143561;-62
2023/01/10 07:20:16;;;;;;;30.30;21.50;;;;;;;2.49;100.00;99090.92;450644;1249;143845;-63
2023/01/10 07:30:23;;;;;;;31.20;21.70;;;;;;;2.55;100.00;99107.11;443276;1251;142791;-62
2023/01/10 07:40:30;;;;;;;29.60;20.20;;;;;;;2.60;100.00;99129.03;450554;1249;141922;-63
2023/01/10 07:50:37;;;;;;;32.90;21.90;;;;;;;2.62;100.00;99135.20;450603;1251;142888;-62
2023/01/10 08:00:44;;;;;;;29.60;21.60;;;;;;;2.68;100.00;99147.24;449818;1250;143411;-63
2023/01/10 08:10:50;;;;;;;38.50;23.90;;;;;;;2.77;100.00;99159.85;450493;1250;142646;-63
2023/01/10 08:20:56;;;;;;;34.50;24.40;;;;;;;2.87;100.00;99169.32;450625;1250;142653;-63
2023/01/10 08:31:07;;;;;;;39.00;24.70;;;;;;;2.92;100.00;99188.14;440264;1250;142402;-63
2023/01/10 08:41:14;;;;;;;34.50;25.10;;;;;;;2.92;100.00;99195.06;446129;1251;142531;-62
2023/01/10 08:51:20;;;;;;;38.40;23.70;;;;;;;2.91;100.00;99197.68;449884;1252;143309;-62
2023/01/10 09:01:26;;;;;;;30.90;21.80;;;;;;;2.99;100.00;99199.63;450502;1251;142581;-63
2023/01/10 09:11:32;;;;;;;29.90;21.00;;;;;;;3.12;100.00;99203.43;450646;1251;142836;-63
2023/01/10 09:21:38;;;;;;;34.90;22.50;;;;;;;3.23;100.00;99207.19;449959;1251;141803;-63
2023/01/10 09:31:44;;;;;;;34.40;25.10;;;;;;;3.23;100.00;99219.80;439420;1253;197654;-63
2023/01/10 09:42:05;;;;;;;36.40;25.80;;;;;;;3.27;100.00;99227.43;443422;1251;142385;-62
2023/01/10 09:52:20;;;;;;;44.90;28.50;;;;;;;3.41;100.00;99231.90;449908;1250;142220;-63
2023/01/10 10:02:30;;;;;;;36.90;25.70;;;;;;;3.62;100.00;99227.08;450583;1250;142878;-63
2023/01/10 10:12:46;;;;;;;37.50;27.20;;;;;;;3.77;100.00;99228.69;449734;1250;143462;-62
2023/01/10 10:23:03;;;;;;;42.20;28.80;;;;;;;3.94;100.00;99239.07;450729;1251;142563;-62
2023/01/10 10:33:25;;;;;;;38.30;26.40;;;;;;;4.21;100.00;99255.45;442783;1251;143686;-62
2023/01/10 10:43:35;;;;;;;36.80;27.00;;;;;;;4.38;100.00;99264.77;450391;1251;211449;-62
2023/01/10 10:53:41;;;;;;;35.60;25.60;;;;;;;4.39;100.00;99285.01;450694;1250;145118;-62
2023/01/10 11:03:51;;;;;;;35.60;26.60;;;;;;;4.33;100.00;99288.52;450004;1251;142434;-62
2023/01/10 11:13:59;;;;;;;40.40;27.20;;;;;;;4.42;100.00;99294.05;450734;1250;141592;-62
2023/01/10 11:24:18;;;;;;;31.20;23.70;;;;;;;4.50;100.00;99302.76;450808;1250;142078;-63
2023/01/10 11:34:29;;;;;;;37.90;26.60;;;;;;;4.59;100.00;99320.55;450372;1251;212919;-63
2023/01/10 11:44:35;;;;;;;38.20;28.60;;;;;;;4.50;100.00;99333.58;450501;1252;142320;-62
2023/01/10 11:54:42;;;;;;;34.00;26.30;;;;;;;4.33;100.00;99343.83;449933;1249;143380;-62
2023/01/10 12:04:52;;;;;;;34.00;26.30;;;;;;;4.20;100.00;99352.67;450894;1250;142715;-63
2023/01/10 12:15:00;;;;;;;37.50;27.20;;;;;;;4.18;100.00;99360.39;450723;1250;142923;-62
2023/01/10 12:25:15;;;;;;;47.30;33.20;;;;;;;4.16;100.00;99370.00;449963;1251;142602;-63
2023/01/10 12:35:25;;;;;;;40.50;28.70;;;;;;;4.05;100.00;99371.64;447523;1251;146827;-63
2023/01/10 12:45:38;;;;;;;36.10;28.10;;;;;;;4.03;100.00;99381.59;449890;1251;144722;-62
2023/01/10 12:55:46;;;;;;;38.90;28.80;;;;;;;4.18;100.00;99394.20;450648;1251;142585;-63
2023/01/10 13:05:53;;;;;;;36.60;26.30;;;;;;;4.23;100.00;99403.86;450743;1251;143848;-63
2023/01/10 13:16:15;;;;;;;33.70;25.80;;;;;;;4.22;100.00;99422.61;449914;1251;144018;-63
2023/01/10 13:26:21;;;;;;;32.60;24.10;;;;;;;4.17;100.00;99453.64;449648;1251;151999;-63
2023/01/10 13:36:29;;;;;;;34.60;26.00;;;;;;;4.06;100.00;99467.92;448897;1253;142593;-61
2023/01/10 13:46:38;;;;;;;37.80;27.70;;;;;;;4.00;100.00;99480.63;450792;1251;145386;-64
2023/01/10 13:56:44;;;;;;;36.70;27.20;;;;;;;3.96;100.00;99494.50;450812;1251;142588;-64
2023/01/10 14:06:57;;;;;;;38.40;28.70;;;;;;;3.99;100.00;99501.61;450015;1250;142707;-63
2023/01/10 14:17:19;;;;;;;39.50;28.80;;;;;;;4.00;100.00;99510.63;450547;1250;142455;-63
2023/01/10 14:27:25;;;;;;;33.20;25.00;;;;;;;3.97;100.00;99519.03;450065;1250;142844;-63
2023/01/10 14:37:37;;;;;;;34.90;25.20;;;;;;;3.96;100.00;99526.33;450627;1251;142838;-63
2023/01/10 14:47:43;;;;;;;29.40;22.60;;;;;;;3.88;100.00;99532.72;450484;1251;143264;-63
2023/01/10 14:57:56;;;;;;;35.60;23.70;;;;;;;3.75;100.00;99535.25;449864;1251;142326;-62
2023/01/10 15:18:39;;;;;;;37.70;25.10;;;;;;;3.62;100.00;99572.09;427594;1295;599395;-63
2023/01/10 15:28:48;;;;;;;36.50;23.30;;;;;;;3.56;100.00;99588.36;447002;1264;149061;-63
2023/01/10 15:38:55;;;;;;;34.90;22.50;;;;;;;3.56;100.00;99592.71;446814;1264;142801;-61
2023/01/10 15:49:03;;;;;;;27.30;18.70;;;;;;;3.58;100.00;99609.59;435246;1264;142419;-63
2023/01/10 15:59:23;;;;;;;36.30;24.10;;;;;;;3.59;100.00;99613.70;442093;1253;146307;-62
2023/01/10 16:09:30;;;;;;;29.70;21.40;;;;;;;3.60;100.00;99614.20;439465;1254;141468;-63
2023/01/10 16:19:53;;;;;;;30.70;19.30;;;;;;;3.62;100.00;99627.47;436580;1253;142872;-63
2023/01/10 16:29:59;;;;;;;31.80;18.60;;;;;;;3.62;100.00;99640.27;449857;1253;142145;-63
2023/01/10 16:40:18;;;;;;;26.10;18.20;;;;;;;3.64;100.00;99629.48;448960;1253;144756;-62
2023/01/10 16:50:24;;;;;;;26.90;18.60;;;;;;;3.67;100.00;99639.44;449782;1254;142167;-63
2023/01/10 17:00:30;;;;;;;26.10;18.20;;;;;;;3.69;100.00;99652.67;449069;1254;186035;-63
2023/01/10 17:10:37;;;;;;;27.30;18.20;;;;;;;3.71;100.00;99662.98;449863;1253;142265;-63
2023/01/10 17:20:44;;;;;;;26.30;19.10;;;;;;;3.75;100.00;99679.13;443656;1253;142751;-62
2023/01/10 17:30:51;;;;;;;27.00;18.40;;;;;;;3.77;100.00;99694.80;448470;1253;142075;-63
2023/01/10 17:41:01;;;;;;;25.60;17.00;;;;;;;3.74;100.00;99701.86;449751;1252;141793;-63
2023/01/10 17:51:07;;;;;;;18.30;15.10;;;;;;;3.73;100.00;99703.45;445566;1253;141935;-62
2023/01/10 18:01:19;;;;;;;20.20;14.60;;;;;;;3.72;100.00;99707.64;449311;1252;196974;-62
2023/01/10 18:11:30;;;;;;;25.80;17.90;;;;;;;3.72;100.00;99726.00;449904;1252;142635;-63
2023/01/10 18:21:36;;;;;;;21.40;16.30;;;;;;;3.70;100.00;99735.42;449065;1253;141859;-63
2023/01/10 18:31:42;;;;;;;22.70;17.00;;;;;;;3.69;100.00;99741.48;449878;1252;145087;-61
2023/01/10 18:41:47;;;;;;;25.50;19.20;;;;;;;3.69;100.00;99748.41;449809;1252;142599;-63
2023/01/10 18:51:53;;;;;;;28.60;19.50;;;;;;;3.70;100.00;99759.65;449097;1253;143173;-63
2023/01/10 19:01:59;;;;;;;28.60;19.70;;;;;;;3.71;100.00;99766.19;449798;1253;142172;-63
2023/01/10 19:12:05;;;;;;;29.40;18.80;;;;;;;3.74;100.00;99773.71;449896;1252;143222;-62
2023/01/10 19:22:10;;;;;;;30.10;21.90;;;;;;;3.78;100.00;99785.72;442404;1254;143409;-63
2023/01/10 19:32:17;;;;;;;32.00;23.40;;;;;;;3.80;100.00;99793.62;446392;1252;143462;-63
2023/01/10 19:42:22;;;;;;;29.50;20.80;;;;;;;3.79;100.00;99795.70;449080;1252;142263;-63
2023/01/10 19:52:31;;;;;;;32.80;21.10;;;;;;;3.80;100.00;99802.44;449907;1252;144726;-63
2023/01/10 20:02:37;;;;;;;28.30;19.80;;;;;;;3.81;100.00;99800.85;449917;1252;141895;-63
2023/01/10 20:12:42;;;;;;;28.60;19.80;;;;;;;3.79;100.00;99795.71;448408;1253;142786;-63
2023/01/10 20:22:50;;;;;;;25.00;19.10;;;;;;;3.73;100.00;99790.36;443909;1252;142955;-64
2023/01/10 20:32:55;;;;;;;25.90;18.90;;;;;;;3.71;100.00;99799.27;447217;1252;143193;-62
2023/01/10 20:43:01;;;;;;;29.00;20.30;;;;;;;3.69;100.00;99800.04;449161;1252;142490;-62
2023/01/10 20:53:07;;;;;;;31.00;22.80;;;;;;;3.67;100.00;99803.88;449887;1254;140732;-63
2023/01/10 21:03:14;;;;;;;28.30;22.50;;;;;;;3.69;100.00;99804.71;449189;1251;142132;-63
2023/01/10 21:13:20;;;;;;;26.50;19.60;;;;;;;3.69;100.00;99804.89;449899;1252;143001;-63
2023/01/10 21:23:27;;;;;;;26.80;18.00;;;;;;;3.66;100.00;99809.83;449807;1252;144351;-62
2023/01/10 21:33:33;;;;;;;28.40;18.20;;;;;;;3.62;100.00;99811.66;449140;1252;142551;-63
2023/01/10 21:43:43;;;;;;;29.20;19.90;;;;;;;3.57;100.00;99816.34;449886;1253;142620;-63
2023/01/10 21:53:49;;;;;;;26.10;18.60;;;;;;;3.57;100.00;99825.68;449995;1254;142189;-63
2023/01/10 22:03:55;;;;;;;25.70;19.10;;;;;;;3.57;100.00;99826.03;449197;1252;142214;-62
2023/01/10 22:14:00;;;;;;;25.60;19.10;;;;;;;3.52;100.00;99830.52;450003;1252;141975;-62
2023/01/10 22:24:07;;;;;;;37.90;24.50;;;;;;;3.51;100.00;99837.98;447979;1252;142072;-64
2023/01/10 22:34:14;;;;;;;30.60;21.80;;;;;;;3.48;100.00;99835.80;449396;1254;210567;-63
2023/01/10 22:44:22;;;;;;;32.10;23.90;;;;;;;3.37;100.00;99834.25;450023;1254;142205;-62
2023/01/10 22:54:28;;;;;;;30.60;21.60;;;;;;;3.29;100.00;99835.52;449299;1252;143229;-63
2023/01/10 23:04:34;;;;;;;32.10;22.50;;;;;;;3.25;100.00;99843.44;449988;1252;142259;-62
2023/01/10 23:14:39;;;;;;;31.80;21.80;;;;;;;3.23;100.00;99849.03;450021;1252;141915;-62
2023/01/10 23:24:45;;;;;;;33.40;21.60;;;;;;;3.26;100.00;99840.65;449105;1252;142363;-62
2023/01/10 23:34:51;;;;;;;32.30;22.80;;;;;;;3.26;100.00;99848.07;449985;1252;142698;-63
2023/01/10 23:44:57;;;;;;;31.10;22.40;;;;;;;3.26;100.00;99847.21;450024;1252;141407;-62
2023/01/10 23:55:03;;;;;;;32.40;22.70;;;;;;;3.18;100.00;99843.65;449271;1252;141380;-63
